createdAt,value
2018-03-19T00:00:41.900Z,3.2
2018-03-19T00:01:44.320Z,3.2
2018-03-19T00:02:47.025Z,3.2
2018-03-19T00:03:49.441Z,3.2
2018-03-19T00:04:51.869Z,3.2
2018-03-19T00:05:54.291Z,3.2
2018-03-19T00:06:56.695Z,3.2
2018-03-19T00:07:59.427Z,3.2
2018-03-19T00:09:01.858Z,3.2
2018-03-19T00:10:04.281Z,3.2
2018-03-19T00:11:06.704Z,3.2
2018-03-19T00:12:09.394Z,3.1
2018-03-19T00:13:11.810Z,3.1
2018-03-19T00:14:14.239Z,3.1
2018-03-19T00:15:16.953Z,3.1
2018-03-19T00:16:19.953Z,3.1
2018-03-19T00:17:22.380Z,3.1
2018-03-19T00:18:24.798Z,3.1
2018-03-19T00:19:27.230Z,3.1
2018-03-19T00:20:29.933Z,3
2018-03-19T00:21:32.340Z,3.1
2018-03-19T00:22:35.051Z,3
2018-03-19T00:23:37.474Z,3.1
2018-03-19T00:24:39.892Z,3.1
2018-03-19T00:25:42.308Z,3.1
2018-03-19T00:26:44.734Z,3.2
2018-03-19T00:27:47.153Z,3.1
2018-03-19T00:28:49.567Z,3.2
2018-03-19T00:29:52.303Z,3.2
2018-03-19T00:30:54.720Z,3.2
2018-03-19T00:31:57.431Z,3.1
2018-03-19T00:32:59.840Z,3.2
2018-03-19T00:34:02.314Z,3.2
2018-03-19T00:35:04.967Z,3.1
2018-03-19T00:36:07.382Z,3.1
2018-03-19T00:37:09.802Z,3.1
2018-03-19T00:38:12.513Z,3.1
2018-03-19T00:39:15.247Z,3.1
2018-03-19T00:40:17.676Z,3.1
2018-03-19T00:41:20.377Z,3.1
2018-03-19T00:42:23.117Z,3.1
2018-03-19T00:43:26.104Z,3.1
2018-03-19T00:44:28.530Z,3.1
2018-03-19T00:45:30.952Z,3.1
2018-03-19T00:46:33.374Z,3.1
2018-03-19T00:47:35.782Z,3.1
2018-03-19T00:48:38.493Z,3.1
2018-03-19T00:49:40.911Z,3.2
2018-03-19T00:50:43.325Z,3.1
2018-03-19T00:51:45.744Z,3.1
2018-03-19T00:52:48.168Z,3.1
2018-03-19T00:53:50.584Z,3.1
2018-03-19T00:54:53.304Z,3.2
2018-03-19T00:55:56.012Z,3.1
2018-03-19T00:56:58.426Z,3.1
2018-03-19T00:58:01.430Z,3.1
2018-03-19T00:59:03.854Z,3.1
2018-03-19T01:00:06.554Z,3.1
2018-03-19T01:01:08.974Z,3
2018-03-19T01:02:11.692Z,3.1
2018-03-19T01:03:14.095Z,3.1
2018-03-19T01:04:16.568Z,3
2018-03-19T01:05:18.940Z,3
2018-03-19T01:06:21.360Z,3
2018-03-19T01:07:23.784Z,3
2018-03-19T01:08:26.504Z,3
2018-03-19T01:09:28.919Z,3
2018-03-19T01:10:31.349Z,3
2018-03-19T01:11:33.757Z,3
2018-03-19T01:12:36.176Z,3
2018-03-19T01:13:38.601Z,3
2018-03-19T01:14:41.012Z,3
2018-03-19T01:15:43.730Z,2.9
2018-03-19T01:16:46.158Z,2.9
2018-03-19T01:17:48.852Z,2.9
2018-03-19T01:18:51.289Z,2.9
2018-03-19T01:19:53.710Z,2.9
2018-03-19T01:20:56.707Z,2.9
2018-03-19T01:21:59.122Z,2.9
2018-03-19T01:23:01.539Z,2.9
2018-03-19T01:24:04.245Z,2.9
2018-03-19T01:25:06.664Z,2.9
2018-03-19T01:26:09.370Z,2.9
2018-03-19T01:27:12.079Z,2.9
2018-03-19T01:28:14.780Z,2.9
2018-03-19T01:29:17.200Z,3
2018-03-19T01:30:19.923Z,2.9
2018-03-19T01:31:22.340Z,3
2018-03-19T01:32:24.754Z,2.9
2018-03-19T01:33:27.457Z,3
2018-03-19T01:34:30.161Z,3
2018-03-19T01:35:32.865Z,2.9
2018-03-19T01:36:35.278Z,2.9
2018-03-19T01:37:37.685Z,2.9
2018-03-19T01:38:40.106Z,2.9
2018-03-19T01:39:42.530Z,2.9
2018-03-19T01:40:44.951Z,2.9
2018-03-19T01:41:47.373Z,2.8
2018-03-19T01:42:49.781Z,2.8
2018-03-19T01:43:52.198Z,2.8
2018-03-19T01:44:54.625Z,2.8
2018-03-19T01:45:57.393Z,2.8
2018-03-19T01:46:59.758Z,2.8
2018-03-19T01:48:02.178Z,2.8
2018-03-19T01:49:04.589Z,2.8
2018-03-19T01:50:07.014Z,2.8
2018-03-19T01:51:09.430Z,2.8
2018-03-19T01:52:11.844Z,2.8
2018-03-19T01:53:14.549Z,2.8
2018-03-19T01:54:16.975Z,2.8
2018-03-19T01:55:19.397Z,2.8
2018-03-19T01:56:22.168Z,2.8
2018-03-19T01:57:24.586Z,2.8
2018-03-19T01:58:27.006Z,2.8
2018-03-19T01:59:29.702Z,2.8
2018-03-19T02:00:32.114Z,2.8
2018-03-19T02:01:34.540Z,2.8
2018-03-19T02:02:37.234Z,2.8
2018-03-19T02:03:39.654Z,2.8
2018-03-19T02:04:42.070Z,2.8
2018-03-19T02:05:44.492Z,2.8
2018-03-19T02:06:46.911Z,2.8
2018-03-19T02:07:49.328Z,2.8
2018-03-19T02:08:51.732Z,2.8
2018-03-19T02:09:54.463Z,2.8
2018-03-19T02:10:57.173Z,2.8
2018-03-19T02:11:59.595Z,2.8
2018-03-19T02:13:02.006Z,2.8
2018-03-19T02:14:04.437Z,2.7
2018-03-19T02:15:07.145Z,2.7
2018-03-19T02:16:09.845Z,2.7
2018-03-19T02:17:12.829Z,2.7
2018-03-19T02:18:15.251Z,2.7
2018-03-19T02:19:17.666Z,2.7
2018-03-19T02:20:20.089Z,2.7
2018-03-19T02:21:22.503Z,2.7
2018-03-19T02:22:25.245Z,2.7
2018-03-19T02:23:27.650Z,2.7
2018-03-19T02:24:30.067Z,2.6
2018-03-19T02:25:32.479Z,2.6
2018-03-19T02:26:34.904Z,2.7
2018-03-19T02:27:37.307Z,2.6
2018-03-19T02:28:40.014Z,2.6
2018-03-19T02:29:42.430Z,2.6
2018-03-19T02:30:44.848Z,2.7
2018-03-19T02:31:47.276Z,2.6
2018-03-19T02:32:49.685Z,2.6
2018-03-19T02:33:52.094Z,2.6
2018-03-19T02:34:54.527Z,2.6
2018-03-19T02:35:56.957Z,2.6
2018-03-19T02:36:59.661Z,2.6
2018-03-19T02:38:02.084Z,2.6
2018-03-19T02:39:04.830Z,2.6
2018-03-19T02:40:07.241Z,2.5
2018-03-19T02:41:09.662Z,2.5
2018-03-19T02:42:12.353Z,2.5
2018-03-19T02:43:15.361Z,2.5
2018-03-19T02:44:17.789Z,2.5
2018-03-19T02:45:20.214Z,2.5
2018-03-19T02:46:22.616Z,2.5
2018-03-19T02:47:25.038Z,2.5
2018-03-19T02:48:27.460Z,2.5
2018-03-19T02:49:30.165Z,2.5
2018-03-19T02:50:32.579Z,2.5
2018-03-19T02:51:34.987Z,2.4
2018-03-19T02:52:37.404Z,2.4
2018-03-19T02:53:39.822Z,2.4
2018-03-19T02:54:42.237Z,2.4
2018-03-19T02:55:44.651Z,2.4
2018-03-19T02:56:47.364Z,2.4
2018-03-19T02:57:50.076Z,2.4
2018-03-19T02:58:52.484Z,2.4
2018-03-19T02:59:54.911Z,2.4
2018-03-19T03:00:57.323Z,2.4
2018-03-19T03:01:59.734Z,2.4
2018-03-19T03:03:02.148Z,2.4
2018-03-19T03:04:04.563Z,2.4
2018-03-19T03:05:07.265Z,2.3
2018-03-19T03:06:09.688Z,2.3
2018-03-19T03:07:12.388Z,2.3
2018-03-19T03:08:15.092Z,2.3
2018-03-19T03:09:17.521Z,2.3
2018-03-19T03:10:19.916Z,2.3
2018-03-19T03:11:22.330Z,2.3
2018-03-19T03:12:24.755Z,2.3
2018-03-19T03:13:27.456Z,2.4
2018-03-19T03:14:29.871Z,2.3
2018-03-19T03:15:32.292Z,2.4
2018-03-19T03:16:34.991Z,2.4
2018-03-19T03:17:37.413Z,2.3
2018-03-19T03:18:39.827Z,2.3
2018-03-19T03:19:42.236Z,2.3
2018-03-19T03:20:44.640Z,2.3
2018-03-19T03:21:47.335Z,2.3
2018-03-19T03:22:49.746Z,2.3
2018-03-19T03:23:52.159Z,2.3
2018-03-19T03:24:54.582Z,2.3
2018-03-19T03:25:56.998Z,2.3
2018-03-19T03:26:59.408Z,2.2
2018-03-19T03:28:01.820Z,2.3
2018-03-19T03:29:04.242Z,2.3
2018-03-19T03:30:06.648Z,2.3
2018-03-19T03:31:09.074Z,2.3
2018-03-19T03:32:11.470Z,2.3
2018-03-19T03:33:13.889Z,2.3
2018-03-19T03:34:16.316Z,2.3
2018-03-19T03:35:18.736Z,2.3
2018-03-19T03:36:21.150Z,2.3
2018-03-19T03:37:23.870Z,2.3
2018-03-19T03:38:26.570Z,2.3
2018-03-19T03:39:28.989Z,2.4
2018-03-19T03:40:31.405Z,2.4
2018-03-19T03:41:33.807Z,2.4
2018-03-19T03:42:36.228Z,2.4
2018-03-19T03:43:38.648Z,2.4
2018-03-19T03:44:41.073Z,2.4
2018-03-19T03:45:43.480Z,2.4
2018-03-19T03:46:45.898Z,2.4
2018-03-19T03:47:48.602Z,2.4
2018-03-19T03:48:51.319Z,2.4
2018-03-19T03:49:53.731Z,2.4
2018-03-19T03:50:56.143Z,2.4
2018-03-19T03:51:58.554Z,2.4
2018-03-19T03:53:00.979Z,2.4
2018-03-19T03:54:03.396Z,2.3
2018-03-19T03:55:05.810Z,2.3
2018-03-19T03:56:08.218Z,2.3
2018-03-19T03:57:10.635Z,2.3
2018-03-19T03:58:13.348Z,2.3
2018-03-19T03:59:16.046Z,2.3
2018-03-19T04:00:18.468Z,2.3
2018-03-19T04:01:20.891Z,2.3
2018-03-19T04:02:23.298Z,2.3
2018-03-19T04:03:25.723Z,2.2
2018-03-19T04:04:28.142Z,2.3
2018-03-19T04:05:30.841Z,2.3
2018-03-19T04:06:33.577Z,2.3
2018-03-19T04:07:36.012Z,2.2
2018-03-19T04:08:38.423Z,2.2
2018-03-19T04:09:40.839Z,2.2
2018-03-19T04:10:43.248Z,2.2
2018-03-19T04:11:45.953Z,2.2
2018-03-19T04:12:48.659Z,2.2
2018-03-19T04:13:51.078Z,2.2
2018-03-19T04:14:53.481Z,2.2
2018-03-19T04:15:55.904Z,2.2
2018-03-19T04:16:58.314Z,2.2
2018-03-19T04:18:01.028Z,2.2
2018-03-19T04:19:03.733Z,2.2
2018-03-19T04:20:06.157Z,2.2
2018-03-19T04:21:08.861Z,2.2
2018-03-19T04:22:11.283Z,2.2
2018-03-19T04:23:13.700Z,2.2
2018-03-19T04:24:16.117Z,2.2
2018-03-19T04:25:18.523Z,2.2
2018-03-19T04:26:20.947Z,2.2
2018-03-19T04:27:23.356Z,2.2
2018-03-19T04:28:26.064Z,2.2
2018-03-19T04:29:28.491Z,2.2
2018-03-19T04:30:30.896Z,2.2
2018-03-19T04:31:33.906Z,2.2
2018-03-19T04:32:36.608Z,2.2
2018-03-19T04:33:39.076Z,2.2
2018-03-19T04:34:41.447Z,2.2
2018-03-19T04:35:44.157Z,2.2
2018-03-19T04:36:46.567Z,2.2
2018-03-19T04:37:49.304Z,2.2
2018-03-19T04:38:52.007Z,2.2
2018-03-19T04:39:54.425Z,2.2
2018-03-19T04:40:56.845Z,2.2
2018-03-19T04:41:59.267Z,2.2
2018-03-19T04:43:02.030Z,2.2
2018-03-19T04:44:05.052Z,2.2
2018-03-19T04:45:07.467Z,2.2
2018-03-19T04:46:09.893Z,2.2
2018-03-19T04:47:12.300Z,2.2
2018-03-19T04:48:14.713Z,2.2
2018-03-19T04:49:17.124Z,2.1
2018-03-19T04:50:19.558Z,2.1
2018-03-19T04:51:21.976Z,2.1
2018-03-19T04:52:24.408Z,2.1
2018-03-19T04:53:26.826Z,2.1
2018-03-19T04:54:29.247Z,2.1
2018-03-19T04:55:31.642Z,2.2
2018-03-19T04:56:34.059Z,2.2
2018-03-19T04:57:36.480Z,2.2
2018-03-19T04:58:38.894Z,2.1
2018-03-19T04:59:41.597Z,2.2
2018-03-19T05:00:44.298Z,2.2
2018-03-19T05:01:46.714Z,2.2
2018-03-19T05:02:49.449Z,2.2
2018-03-19T05:03:52.150Z,2.2
2018-03-19T05:04:54.562Z,2.2
2018-03-19T05:05:56.972Z,2.2
2018-03-19T05:06:59.680Z,2.2
2018-03-19T05:08:02.090Z,2.2
2018-03-19T05:09:04.514Z,2.2
2018-03-19T05:10:07.210Z,2.2
2018-03-19T05:11:09.628Z,2.2
2018-03-19T05:12:12.041Z,2.2
2018-03-19T05:13:14.460Z,2.2
2018-03-19T05:14:17.158Z,2.2
2018-03-19T05:15:19.868Z,2.3
2018-03-19T05:16:22.272Z,2.3
2018-03-19T05:17:24.691Z,2.3
2018-03-19T05:18:27.107Z,2.3
2018-03-19T05:19:29.523Z,2.3
2018-03-19T05:20:31.938Z,2.2
2018-03-19T05:21:34.367Z,2.2
2018-03-19T05:22:36.785Z,2.2
2018-03-19T05:23:39.193Z,2.2
2018-03-19T05:24:41.607Z,2.1
2018-03-19T05:25:44.017Z,2.1
2018-03-19T05:26:46.433Z,2.1
2018-03-19T05:27:48.855Z,2.1
2018-03-19T05:28:51.277Z,2.1
2018-03-19T05:29:53.687Z,2.1
2018-03-19T05:30:56.117Z,2.1
2018-03-19T05:31:58.842Z,2.1
2018-03-19T05:33:01.259Z,2.1
2018-03-19T05:34:03.673Z,2
2018-03-19T05:35:06.368Z,2
2018-03-19T05:36:08.785Z,2
2018-03-19T05:37:11.485Z,2
2018-03-19T05:38:14.173Z,2
2018-03-19T05:39:16.589Z,2
2018-03-19T05:40:19.017Z,2
2018-03-19T05:41:21.429Z,2
2018-03-19T05:42:23.843Z,2
2018-03-19T05:43:26.267Z,2
2018-03-19T05:44:28.684Z,2
2018-03-19T05:45:31.103Z,2
2018-03-19T05:46:33.517Z,2
2018-03-19T05:47:35.924Z,2
2018-03-19T05:48:38.627Z,1.9
2018-03-19T05:49:41.341Z,2
2018-03-19T05:50:43.752Z,2
2018-03-19T05:51:46.161Z,2
2018-03-19T05:52:48.576Z,2
2018-03-19T05:53:50.999Z,2
2018-03-19T05:54:53.692Z,2
2018-03-19T05:55:56.630Z,2
2018-03-19T05:57:00.742Z,2.1
2018-03-19T05:58:03.157Z,2.1
2018-03-19T05:59:05.853Z,2.1
2018-03-19T06:00:08.271Z,2.1
2018-03-19T06:01:10.970Z,2.2
2018-03-19T06:02:13.398Z,2.2
2018-03-19T06:03:15.813Z,2.2
2018-03-19T06:04:18.219Z,2.3
2018-03-19T06:05:20.643Z,2.3
2018-03-19T06:06:23.059Z,2.4
2018-03-19T06:07:25.478Z,2.4
2018-03-19T06:08:27.897Z,2.4
2018-03-19T06:09:30.314Z,2.4
2018-03-19T06:10:32.728Z,2.5
2018-03-19T06:11:35.157Z,2.5
2018-03-19T06:12:37.574Z,2.5
2018-03-19T06:13:40.276Z,2.5
2018-03-19T06:14:42.699Z,2.5
2018-03-19T06:15:45.111Z,2.6
2018-03-19T06:16:47.532Z,2.6
2018-03-19T06:17:49.949Z,2.6
2018-03-19T06:18:52.362Z,2.6
2018-03-19T06:19:54.777Z,2.6
2018-03-19T06:20:57.217Z,2.6
2018-03-19T06:21:59.627Z,2.7
2018-03-19T06:23:02.045Z,2.7
2018-03-19T06:24:04.747Z,2.7
2018-03-19T06:25:07.165Z,2.7
2018-03-19T06:26:09.573Z,2.7
2018-03-19T06:27:11.990Z,2.7
2018-03-19T06:28:14.415Z,2.7
2018-03-19T06:29:16.821Z,2.7
2018-03-19T06:30:19.242Z,2.7
2018-03-19T06:31:21.941Z,2.7
2018-03-19T06:32:24.711Z,2.7
2018-03-19T06:33:27.838Z,2.7
2018-03-19T06:34:30.263Z,2.7
2018-03-19T06:35:32.661Z,2.7
2018-03-19T06:36:35.088Z,2.8
2018-03-19T06:37:37.491Z,2.8
2018-03-19T06:38:39.910Z,2.8
2018-03-19T06:39:42.614Z,2.8
2018-03-19T06:40:45.035Z,2.8
2018-03-19T06:41:47.455Z,2.8
2018-03-19T06:42:49.876Z,2.8
2018-03-19T06:43:52.877Z,2.9
2018-03-19T06:44:55.302Z,2.9
2018-03-19T06:45:57.714Z,2.9
2018-03-19T06:47:00.137Z,2.9
2018-03-19T06:48:02.832Z,2.9
2018-03-19T06:49:05.254Z,2.9
2018-03-19T06:50:07.955Z,3
2018-03-19T06:51:10.366Z,3
2018-03-19T06:52:12.789Z,3
2018-03-19T06:53:15.795Z,3
2018-03-19T06:54:18.202Z,3
2018-03-19T06:55:20.628Z,3.1
2018-03-19T06:56:23.044Z,3.1
2018-03-19T06:57:25.746Z,3.2
2018-03-19T06:58:28.177Z,3.2
2018-03-19T06:59:30.585Z,3.2
2018-03-19T07:00:33.008Z,3.3
2018-03-19T07:01:35.440Z,3.3
2018-03-19T07:02:38.131Z,3.4
2018-03-19T07:03:40.542Z,3.4
2018-03-19T07:04:42.964Z,3.4
2018-03-19T07:05:45.372Z,3.5
2018-03-19T07:06:48.073Z,3.5
2018-03-19T07:07:50.493Z,3.6
2018-03-19T07:08:52.916Z,3.6
2018-03-19T07:09:55.337Z,3.6
2018-03-19T07:10:57.756Z,3.6
2018-03-19T07:12:00.181Z,3.6
2018-03-19T07:13:02.873Z,3.7
2018-03-19T07:14:05.612Z,3.7
2018-03-19T07:15:08.020Z,3.8
2018-03-19T07:16:10.439Z,3.8
2018-03-19T07:17:12.900Z,3.8
2018-03-19T07:18:15.605Z,3.8
2018-03-19T07:19:18.303Z,3.9
2018-03-19T07:20:20.724Z,3.9
2018-03-19T07:21:23.140Z,3.9
2018-03-19T07:22:25.840Z,3.9
2018-03-19T07:23:28.262Z,4
2018-03-19T07:24:30.680Z,4
2018-03-19T07:25:33.094Z,4.1
2018-03-19T07:26:35.812Z,4.2
2018-03-19T07:27:38.229Z,4.2
2018-03-19T07:28:40.702Z,4.3
2018-03-19T07:29:43.073Z,4.4
2018-03-19T07:30:45.488Z,4.4
2018-03-19T07:31:47.908Z,4.5
2018-03-19T07:32:50.337Z,4.6
2018-03-19T07:33:52.817Z,4.7
2018-03-19T07:34:55.170Z,4.7
2018-03-19T07:35:57.593Z,4.8
2018-03-19T07:36:59.999Z,4.8
2018-03-19T07:38:02.420Z,4.9
2018-03-19T07:39:04.844Z,4.9
2018-03-19T07:40:07.553Z,5
2018-03-19T07:41:09.974Z,5
2018-03-19T07:42:12.396Z,5.1
2018-03-19T07:43:14.816Z,5.1
2018-03-19T07:44:17.245Z,5.1
2018-03-19T07:45:19.951Z,5.1
2018-03-19T07:46:22.642Z,5.1
2018-03-19T07:47:25.063Z,5.1
2018-03-19T07:48:27.525Z,5.2
2018-03-19T07:49:29.910Z,5.3
2018-03-19T07:50:32.345Z,5.3
2018-03-19T07:51:34.756Z,5.4
2018-03-19T07:52:37.756Z,5.4
2018-03-19T07:53:40.184Z,5.5
2018-03-19T07:54:42.608Z,5.5
2018-03-19T07:55:45.034Z,5.6
2018-03-19T07:56:47.462Z,5.6
2018-03-19T07:57:49.872Z,5.6
2018-03-19T07:58:52.585Z,5.7
2018-03-19T07:59:55.008Z,5.8
2018-03-19T08:00:57.429Z,5.9
2018-03-19T08:01:59.845Z,5.9
2018-03-19T08:03:02.553Z,6
2018-03-19T08:04:04.975Z,6
2018-03-19T08:05:07.401Z,6.1
2018-03-19T08:06:09.820Z,6.2
2018-03-19T08:07:12.248Z,6.3
2018-03-19T08:08:14.960Z,6.3
2018-03-19T08:09:17.395Z,6.4
2018-03-19T08:10:19.830Z,6.5
2018-03-19T08:11:22.251Z,6.7
2018-03-19T08:12:24.686Z,6.8
2018-03-19T08:13:27.101Z,6.9
2018-03-19T08:14:29.524Z,7.1
2018-03-19T08:15:31.949Z,7.2
2018-03-19T08:16:34.364Z,7.4
2018-03-19T08:17:36.796Z,7.6
2018-03-19T08:18:39.241Z,7.8
2018-03-19T08:19:41.965Z,8
2018-03-19T08:20:44.688Z,8.3
2018-03-19T08:21:47.707Z,8.5
2018-03-19T08:22:50.123Z,8.8
2018-03-19T08:23:52.840Z,9.1
2018-03-19T08:24:55.277Z,9.4
2018-03-19T08:25:57.998Z,9.7
2018-03-19T08:27:00.405Z,10
2018-03-19T08:28:02.851Z,10.3
2018-03-19T08:29:05.297Z,10.5
2018-03-19T08:30:08.511Z,10.8
2018-03-19T08:31:11.332Z,11.1
2018-03-19T08:32:13.756Z,11.3
2018-03-19T08:33:16.185Z,11.6
2018-03-19T08:34:18.627Z,11.9
2018-03-19T08:35:21.056Z,12.2
2018-03-19T08:36:23.846Z,12.4
2018-03-19T08:37:26.365Z,12.7
2018-03-19T08:38:33.808Z,12.9
2018-03-19T08:39:44.005Z,13.2
2018-03-19T08:40:46.935Z,13.4
2018-03-19T08:41:51.274Z,13.7
2018-03-19T08:42:54.077Z,13.9
2018-03-19T08:43:58.531Z,14.1
2018-03-19T08:45:02.390Z,14.3
2018-03-19T08:46:05.364Z,14.5
2018-03-19T08:47:09.859Z,14.7
2018-03-19T08:48:13.430Z,14.9
2018-03-19T08:49:16.835Z,15.1
2018-03-19T08:50:19.861Z,15.3
2018-03-19T08:51:23.487Z,15.4
2018-03-19T08:52:26.997Z,15.6
2018-03-19T08:53:29.435Z,15.7
2018-03-19T08:54:31.866Z,15.8
2018-03-19T08:55:34.308Z,15.9
2018-03-19T08:56:36.743Z,16
2018-03-19T08:57:39.459Z,16.1
2018-03-19T08:58:41.910Z,16.2
2018-03-19T08:59:44.644Z,16.3
2018-03-19T09:00:47.077Z,16.4
2018-03-19T09:01:49.519Z,16.5
2018-03-19T09:02:51.965Z,16.6
2018-03-19T09:03:54.401Z,16.7
2018-03-19T09:04:56.843Z,16.8
2018-03-19T09:05:59.272Z,16.9
2018-03-19T09:07:01.712Z,16.9
2018-03-19T09:08:04.164Z,17
2018-03-19T09:09:06.605Z,17.1
2018-03-19T09:10:09.031Z,17.2
2018-03-19T09:11:11.473Z,17.3
2018-03-19T09:12:13.909Z,17.4
2018-03-19T09:13:16.352Z,17.4
2018-03-19T09:14:18.784Z,17.5
2018-03-19T09:15:21.215Z,17.6
2018-03-19T09:16:23.658Z,17.6
2018-03-19T09:17:26.116Z,17.7
2018-03-19T09:18:28.552Z,17.8
2018-03-19T09:19:31.000Z,17.8
2018-03-19T09:20:33.443Z,17.9
2018-03-19T09:21:35.884Z,17.9
2018-03-19T09:22:38.309Z,18
2018-03-19T09:23:41.348Z,18.1
2018-03-19T09:24:43.787Z,18.2
2018-03-19T09:25:46.228Z,18.2
2018-03-19T09:26:48.669Z,18.3
2018-03-19T09:27:51.397Z,18.4
2018-03-19T09:28:53.838Z,18.4
2018-03-19T09:29:56.866Z,18.5
2018-03-19T09:30:59.306Z,18.6
2018-03-19T09:32:01.740Z,18.6
2018-03-19T09:33:04.486Z,18.7
2018-03-19T09:34:07.220Z,18.8
2018-03-19T09:35:09.668Z,18.8
2018-03-19T09:36:12.497Z,18.8
2018-03-19T09:37:14.929Z,18.8
2018-03-19T09:38:17.369Z,18.8
2018-03-19T09:39:19.798Z,18.8
2018-03-19T09:40:22.243Z,18.8
2018-03-19T09:41:24.681Z,18.8
2018-03-19T09:42:27.135Z,18.9
2018-03-19T09:43:29.566Z,18.9
2018-03-19T09:44:32.007Z,19
2018-03-19T09:45:34.446Z,19
2018-03-19T09:46:36.888Z,19.1
2018-03-19T09:47:39.326Z,19.1
2018-03-19T09:48:42.071Z,19.2
2018-03-19T09:49:44.508Z,19.2
2018-03-19T09:50:46.930Z,19.3
2018-03-19T09:51:49.676Z,19.3
2018-03-19T09:52:52.121Z,19.3
2018-03-19T09:53:54.862Z,19.3
2018-03-19T09:54:57.297Z,19.4
2018-03-19T09:55:59.746Z,19.4
2018-03-19T09:57:02.183Z,19.5
2018-03-19T09:58:04.637Z,19.5
2018-03-19T09:59:07.076Z,19.5
2018-03-19T10:00:09.508Z,19.6
2018-03-19T10:01:12.234Z,19.6
2018-03-19T10:02:14.678Z,19.6
2018-03-19T10:03:17.120Z,19.6
2018-03-19T10:04:19.871Z,19.7
2018-03-19T10:05:22.301Z,19.8
2018-03-19T10:06:24.743Z,19.8
2018-03-19T10:07:27.227Z,19.8
2018-03-19T10:08:29.822Z,19.9
2018-03-19T10:09:32.267Z,19.8
2018-03-19T10:10:35.134Z,19.8
2018-03-19T10:11:37.816Z,19.7
2018-03-19T10:12:40.566Z,19.7
2018-03-19T10:13:43.315Z,19.7
2018-03-19T10:14:46.775Z,19.8
2018-03-19T10:15:49.856Z,19.8
2018-03-19T10:16:52.533Z,19.9
2018-03-19T10:17:55.208Z,20
2018-03-19T10:19:27.939Z,20
2018-03-19T10:20:30.374Z,20.1
2018-03-19T10:21:32.832Z,20.2
2018-03-19T10:22:35.258Z,20.3
2018-03-19T10:23:37.700Z,20.3
2018-03-19T10:24:40.149Z,20.4
2018-03-19T10:25:42.594Z,20.4
2018-03-19T10:26:45.020Z,20.4
2018-03-19T10:27:47.477Z,20.5
2018-03-19T10:28:49.916Z,20.6
2018-03-19T10:29:52.666Z,20.6
2018-03-19T10:30:55.111Z,20.7
2018-03-19T10:31:57.557Z,20.7
2018-03-19T10:32:59.993Z,20.7
2018-03-19T10:34:02.448Z,20.7
2018-03-19T10:35:04.886Z,20.6
2018-03-19T10:36:07.328Z,20.7
2018-03-19T10:37:09.771Z,20.7
2018-03-19T10:38:12.502Z,20.7
2018-03-19T10:39:15.519Z,20.8
2018-03-19T10:40:17.959Z,20.8
2018-03-19T10:41:20.393Z,20.8
2018-03-19T10:42:22.839Z,20.9
2018-03-19T10:43:25.566Z,20.9
2018-03-19T10:44:28.062Z,20.9
2018-03-19T10:45:30.444Z,20.9
2018-03-19T10:46:32.890Z,20.9
2018-03-19T10:47:35.633Z,21
2018-03-19T10:48:38.088Z,21
2018-03-19T10:49:40.819Z,21
2018-03-19T10:50:43.823Z,21
2018-03-19T10:51:46.561Z,21
2018-03-19T10:52:49.021Z,21.1
2018-03-19T10:53:51.448Z,21.2
2018-03-19T10:54:53.893Z,21.2
2018-03-19T10:55:56.336Z,21.3
2018-03-19T10:56:58.775Z,21.3
2018-03-19T10:58:01.221Z,21.4
2018-03-19T10:59:03.654Z,21.4
2018-03-19T11:00:06.101Z,21.5
2018-03-19T11:01:08.544Z,21.5
2018-03-19T11:02:11.285Z,21.5
2018-03-19T11:03:13.720Z,21.5
2018-03-19T11:04:16.168Z,21.5
2018-03-19T11:05:18.602Z,21.6
2018-03-19T11:06:21.342Z,21.6
2018-03-19T11:07:24.135Z,21.6
2018-03-19T11:08:26.586Z,21.5
2018-03-19T11:09:29.028Z,21.5
2018-03-19T11:10:32.045Z,21.6
2018-03-19T11:11:34.482Z,21.6
2018-03-19T11:12:36.936Z,21.6
2018-03-19T11:13:39.368Z,21.6
2018-03-19T11:14:41.810Z,21.6
2018-03-19T11:15:44.249Z,21.6
2018-03-19T11:16:46.696Z,21.7
2018-03-19T11:17:49.433Z,21.7
2018-03-19T11:18:51.886Z,21.7
2018-03-19T11:19:54.608Z,21.8
2018-03-19T11:20:57.051Z,21.8
2018-03-19T11:21:59.774Z,21.9
2018-03-19T11:23:02.245Z,21.9
2018-03-19T11:24:04.968Z,22
2018-03-19T11:25:07.708Z,22
2018-03-19T11:26:10.138Z,22.1
2018-03-19T11:27:12.877Z,22.1
2018-03-19T11:28:15.321Z,22.1
2018-03-19T11:29:17.767Z,22.1
2018-03-19T11:30:20.492Z,22.2
2018-03-19T11:31:23.251Z,22.2
2018-03-19T11:32:25.981Z,22.2
2018-03-19T11:33:28.428Z,22.3
2018-03-19T11:34:30.863Z,22.4
2018-03-19T11:35:33.317Z,22.4
2018-03-19T11:36:36.047Z,22.5
2018-03-19T11:37:39.066Z,22.5
2018-03-19T11:38:41.513Z,22.6
2018-03-19T11:39:44.251Z,22.7
2018-03-19T11:40:46.695Z,22.7
2018-03-19T11:41:49.145Z,22.8
2018-03-19T11:42:51.928Z,22.8
2018-03-19T11:43:54.372Z,22.8
2018-03-19T11:44:56.822Z,22.8
2018-03-19T11:45:59.835Z,22.8
2018-03-19T11:47:02.291Z,22.8
2018-03-19T11:48:04.741Z,22.8
2018-03-19T11:49:07.456Z,22.8
2018-03-19T11:50:09.903Z,22.8
2018-03-19T11:51:12.348Z,22.8
2018-03-19T11:52:15.080Z,22.8
2018-03-19T11:53:17.525Z,22.9
2018-03-19T11:54:19.969Z,22.9
2018-03-19T11:55:22.700Z,22.9
2018-03-19T11:56:25.143Z,23
2018-03-19T11:57:27.879Z,22.9
2018-03-19T11:58:30.889Z,23
2018-03-19T11:59:33.341Z,23
2018-03-19T12:00:36.069Z,23.1
2018-03-19T12:01:38.514Z,23.1
2018-03-19T12:02:41.244Z,23.1
2018-03-19T12:03:43.683Z,23.1
2018-03-19T12:04:46.433Z,23
2018-03-19T12:05:48.874Z,23
2018-03-19T12:06:51.312Z,23
2018-03-19T12:07:53.754Z,23
2018-03-19T12:08:56.190Z,23.1
2018-03-19T12:09:58.629Z,23.1
2018-03-19T12:11:01.371Z,23.1
2018-03-19T12:12:03.809Z,23.1
2018-03-19T12:13:06.254Z,23.1
2018-03-19T12:14:08.989Z,23.2
2018-03-19T12:15:11.428Z,23.2
2018-03-19T12:16:14.160Z,23.2
2018-03-19T12:17:16.607Z,23.2
2018-03-19T12:18:19.062Z,23.2
2018-03-19T12:19:21.509Z,23.2
2018-03-19T12:20:23.962Z,23.2
2018-03-19T12:21:26.417Z,23.2
2018-03-19T12:22:29.150Z,23.3
2018-03-19T12:23:31.588Z,23.3
2018-03-19T12:24:34.039Z,23.3
2018-03-19T12:25:36.488Z,23.3
2018-03-19T12:26:39.502Z,23.3
2018-03-19T12:27:41.948Z,23.3
2018-03-19T12:28:44.388Z,23.3
2018-03-19T12:29:46.830Z,23.3
2018-03-19T12:30:49.283Z,23.3
2018-03-19T12:31:52.013Z,23.3
2018-03-19T12:32:54.459Z,23.3
2018-03-19T12:33:56.894Z,23.3
2018-03-19T12:34:59.626Z,23.3
2018-03-19T12:36:02.080Z,23.3
2018-03-19T12:37:04.527Z,23.3
2018-03-19T12:38:06.968Z,23.3
2018-03-19T12:39:09.416Z,23.3
2018-03-19T12:40:12.157Z,23.3
2018-03-19T12:41:14.884Z,23.3
2018-03-19T12:42:17.333Z,23.3
2018-03-19T12:43:19.772Z,23.3
2018-03-19T12:44:22.216Z,23.3
2018-03-19T12:45:24.956Z,23.2
2018-03-19T12:46:27.398Z,23.2
2018-03-19T12:47:30.132Z,23.2
2018-03-19T12:48:32.574Z,23.2
2018-03-19T12:49:35.017Z,23.2
2018-03-19T12:50:37.454Z,23.2
2018-03-19T12:51:40.192Z,23.2
2018-03-19T12:52:42.922Z,23.2
2018-03-19T12:53:45.646Z,23.2
2018-03-19T12:54:48.082Z,23.2
2018-03-19T12:55:50.531Z,23.2
2018-03-19T12:56:52.969Z,23.2
2018-03-19T12:57:55.412Z,23.2
2018-03-19T12:58:58.164Z,23.2
2018-03-19T13:00:00.616Z,23.2
2018-03-19T13:01:03.065Z,23.2
2018-03-19T13:02:05.841Z,23.2
2018-03-19T13:03:08.277Z,23.2
2018-03-19T13:04:10.724Z,23.2
2018-03-19T13:05:13.163Z,23.2
2018-03-19T13:06:16.213Z,23.1
2018-03-19T13:07:18.656Z,23
2018-03-19T13:08:21.097Z,22.9
2018-03-19T13:09:23.811Z,22.8
2018-03-19T13:10:26.551Z,22.7
2018-03-19T13:11:28.992Z,22.6
2018-03-19T13:12:31.432Z,22.4
2018-03-19T13:13:33.892Z,22.4
2018-03-19T13:14:36.323Z,22.3
2018-03-19T13:15:38.761Z,22.3
2018-03-19T13:16:41.218Z,22.3
2018-03-19T13:17:43.669Z,22.3
2018-03-19T13:18:46.094Z,22.4
2018-03-19T13:19:48.539Z,22.4
2018-03-19T13:20:50.979Z,22.4
2018-03-19T13:21:53.425Z,22.5
2018-03-19T13:22:56.161Z,22.5
2018-03-19T13:23:58.614Z,22.4
2018-03-19T13:25:01.101Z,22.4
2018-03-19T13:26:03.541Z,22.4
2018-03-19T13:27:06.285Z,22.4
2018-03-19T13:28:08.724Z,22.4
2018-03-19T13:29:11.165Z,22.4
2018-03-19T13:30:13.622Z,22.3
2018-03-19T13:31:16.063Z,22.3
2018-03-19T13:32:18.788Z,22.3
2018-03-19T13:33:21.233Z,22.3
2018-03-19T13:34:23.698Z,22.3
2018-03-19T13:35:26.741Z,22.4
2018-03-19T13:36:29.189Z,22.4
2018-03-19T13:37:31.624Z,22.4
2018-03-19T13:38:34.067Z,22.4
2018-03-19T13:39:36.509Z,22.4
2018-03-19T13:40:39.229Z,22.3
2018-03-19T13:41:41.668Z,22.3
2018-03-19T13:42:44.111Z,22.2
2018-03-19T13:43:46.554Z,22.2
2018-03-19T13:44:49.009Z,22.2
2018-03-19T13:45:51.451Z,22.2
2018-03-19T13:46:54.170Z,22.2
2018-03-19T13:47:56.616Z,22.2
2018-03-19T13:48:59.064Z,22.1
2018-03-19T13:50:01.514Z,22
2018-03-19T13:51:03.951Z,21.9
2018-03-19T13:52:06.387Z,21.8
2018-03-19T13:53:08.830Z,21.8
2018-03-19T13:54:11.577Z,21.7
2018-03-19T13:55:14.294Z,21.6
2018-03-19T13:56:17.025Z,21.5
2018-03-19T13:57:19.462Z,21.5
2018-03-19T13:58:22.496Z,21.4
2018-03-19T13:59:24.941Z,21.3
2018-03-19T14:00:27.382Z,21.3
2018-03-19T14:01:29.814Z,21.3
2018-03-19T14:02:32.556Z,21.4
2018-03-19T14:03:35.000Z,21.4
2018-03-19T14:04:37.436Z,21.4
2018-03-19T14:05:39.898Z,21.4
2018-03-19T14:06:42.318Z,21.5
2018-03-19T14:07:44.758Z,21.5
2018-03-19T14:08:47.208Z,21.6
2018-03-19T14:09:49.638Z,21.6
2018-03-19T14:10:52.091Z,21.7
2018-03-19T14:11:54.531Z,21.7
2018-03-19T14:12:56.963Z,21.7
2018-03-19T14:13:59.698Z,21.7
2018-03-19T14:15:02.140Z,21.8